createdAt,value
2022-12-10T00:01:53.343Z,14.37
2022-12-10T00:04:22.627Z,15.50
2022-12-10T00:06:51.521Z,15.30
2022-12-10T00:09:22.756Z,16.13
2022-12-10T00:11:53.002Z,16.27
2022-12-10T00:14:21.806Z,15.77
2022-12-10T00:16:50.513Z,15.83
2022-12-10T00:19:19.280Z,15.50
2022-12-10T00:21:48.035Z,17.40
2022-12-10T00:24:16.904Z,16.90
2022-12-10T00:26:47.177Z,17.83
2022-12-10T00:29:17.229Z,19.33
2022-12-10T00:31:45.846Z,19.37
2022-12-10T00:34:15.218Z,19.40
2022-12-10T00:36:46.956Z,17.40
2022-12-10T00:39:19.001Z,17.40
2022-12-10T00:41:48.612Z,17.10
2022-12-10T00:44:19.098Z,18.37
2022-12-10T00:46:48.190Z,16.53
2022-12-10T00:49:16.827Z,17.10
2022-12-10T00:51:45.518Z,16.77
2022-12-10T00:54:14.422Z,16.03
2022-12-10T00:56:43.310Z,15.80
2022-12-10T00:59:11.946Z,18.50
2022-12-10T01:01:44.711Z,16.63
2022-12-10T01:04:16.977Z,17.80
2022-12-10T01:06:51.495Z,17.10
2022-12-10T01:09:22.656Z,18.70
2022-12-10T01:11:53.431Z,17.20
2022-12-10T01:14:25.602Z,18.10
2022-12-10T01:17:00.553Z,17.23
2022-12-10T01:19:29.161Z,19.53
2022-12-10T01:21:59.371Z,18.37
2022-12-10T01:24:30.160Z,18.13
2022-12-10T01:26:59.657Z,19.53
2022-12-10T01:29:29.247Z,19.40
2022-12-10T01:32:00.520Z,19.77
2022-12-10T01:34:29.423Z,20.20
2022-12-10T01:36:58.226Z,20.30
2022-12-10T01:39:27.266Z,18.93
2022-12-10T01:41:59.011Z,20.03
2022-12-10T01:45:01.471Z,19.67
2022-12-10T01:47:31.512Z,20.10
2022-12-10T01:50:01.910Z,20.53
2022-12-10T01:52:30.922Z,20.60
2022-12-10T01:54:59.657Z,20.87
2022-12-10T01:57:30.419Z,19.47
2022-12-10T02:00:03.824Z,18.87
2022-12-10T02:02:44.999Z,18.60
2022-12-10T02:05:26.732Z,19.00
2022-12-10T02:08:09.750Z,18.33
2022-12-10T02:10:58.183Z,17.60
2022-12-10T02:13:35.390Z,17.43
2022-12-10T02:16:14.485Z,17.60
2022-12-10T02:18:52.686Z,17.87
2022-12-10T02:21:30.004Z,17.07
2022-12-10T02:24:05.529Z,17.67
2022-12-10T02:26:45.788Z,17.20
2022-12-10T02:29:22.350Z,18.70
2022-12-10T02:32:01.634Z,17.03
2022-12-10T02:34:36.661Z,19.13
2022-12-10T02:37:14.333Z,17.63
2022-12-10T02:39:50.586Z,17.87
2022-12-10T02:42:21.397Z,16.77
2022-12-10T02:44:53.059Z,17.00
2022-12-10T02:47:23.140Z,17.93
2022-12-10T02:49:58.313Z,17.73
2022-12-10T02:52:27.367Z,18.63
2022-12-10T02:54:56.693Z,17.43
2022-12-10T02:57:39.984Z,18.93
2022-12-10T03:00:19.459Z,18.87
2022-12-10T03:03:24.902Z,20.17
2022-12-10T03:06:01.990Z,19.73
2022-12-10T03:08:40.607Z,18.93
2022-12-10T03:11:15.379Z,19.33
2022-12-10T03:13:55.485Z,20.43
2022-12-10T03:16:30.822Z,21.30
2022-12-10T03:19:05.209Z,23.03
2022-12-10T03:21:38.508Z,20.30
2022-12-10T03:24:09.440Z,21.80
2022-12-10T03:26:40.145Z,20.97
2022-12-10T03:29:16.618Z,20.37
2022-12-10T03:31:48.173Z,21.63
2022-12-10T03:34:17.772Z,22.17
2022-12-10T03:36:47.515Z,21.77
2022-12-10T03:39:16.896Z,21.03
2022-12-10T03:41:45.911Z,22.07
2022-12-10T03:44:14.697Z,21.57
2022-12-10T03:46:43.649Z,22.30
2022-12-10T03:49:14.266Z,22.13
2022-12-10T03:51:42.845Z,21.40
2022-12-10T03:54:11.534Z,21.23
2022-12-10T03:56:40.433Z,21.00
2022-12-10T03:59:09.312Z,20.53
2022-12-10T04:01:38.357Z,22.10
2022-12-10T04:04:08.050Z,20.57
2022-12-10T04:07:00.426Z,20.97
2022-12-10T04:09:34.681Z,23.97
2022-12-10T04:12:03.643Z,22.43
2022-12-10T04:14:49.629Z,21.87
2022-12-10T04:17:18.231Z,20.97
2022-12-10T04:19:46.841Z,20.73
2022-12-10T04:22:34.273Z,20.53
2022-12-10T04:25:20.505Z,20.67
2022-12-10T04:27:49.316Z,21.13
2022-12-10T04:30:17.937Z,19.33
2022-12-10T04:32:46.740Z,21.10
2022-12-10T04:35:16.116Z,18.20
2022-12-10T04:37:46.178Z,14.97
2022-12-10T04:40:15.416Z,16.40
2022-12-10T04:42:44.123Z,15.57
2022-12-10T04:45:13.146Z,16.87
2022-12-10T04:47:41.920Z,17.77
2022-12-10T04:50:11.461Z,15.53
2022-12-10T04:52:40.395Z,16.07
2022-12-10T04:55:11.232Z,14.67
2022-12-10T04:57:39.830Z,15.77
2022-12-10T05:00:10.995Z,15.03
2022-12-10T05:02:39.748Z,15.67
2022-12-10T05:05:09.252Z,15.17
2022-12-10T05:07:37.837Z,15.87
2022-12-10T05:10:08.194Z,14.90
2022-12-10T05:12:38.426Z,15.77
2022-12-10T05:15:09.036Z,14.70
2022-12-10T05:17:37.650Z,14.17
2022-12-10T05:20:08.017Z,14.30
2022-12-10T05:23:08.794Z,14.37
2022-12-10T05:25:53.879Z,13.73
2022-12-10T05:28:25.022Z,14.83
2022-12-10T05:30:53.878Z,14.90
2022-12-10T05:33:22.583Z,15.50
2022-12-10T05:36:00.045Z,15.87
2022-12-10T05:38:30.600Z,15.10
2022-12-10T05:41:04.397Z,15.63
2022-12-10T05:43:34.477Z,16.00
2022-12-10T05:46:04.103Z,16.73
2022-12-10T05:48:34.420Z,16.90
2022-12-10T05:51:06.780Z,14.63
2022-12-10T05:53:35.895Z,18.07
2022-12-10T05:56:07.042Z,17.63
2022-12-10T05:58:37.876Z,18.47
2022-12-10T06:01:12.698Z,17.77
2022-12-10T06:03:42.265Z,18.30
2022-12-10T06:06:12.064Z,16.87
2022-12-10T06:08:41.719Z,16.77
2022-12-10T06:11:12.975Z,15.70
2022-12-10T06:13:43.023Z,16.00
2022-12-10T06:16:14.871Z,17.03
2022-12-10T06:18:43.874Z,15.10
2022-12-10T06:21:15.847Z,14.77
2022-12-10T06:23:45.494Z,13.27
2022-12-10T06:26:17.752Z,13.90
2022-12-10T06:28:49.071Z,12.90
2022-12-10T06:31:18.651Z,13.27
2022-12-10T06:33:48.805Z,13.60
2022-12-10T06:36:20.087Z,13.27
2022-12-10T06:38:49.381Z,15.33
2022-12-10T06:41:21.233Z,14.60
2022-12-10T06:43:51.556Z,15.17
2022-12-10T06:46:23.743Z,16.57
2022-12-10T06:48:52.638Z,15.37
2022-12-10T06:51:21.319Z,18.33
2022-12-10T06:53:49.987Z,18.47
2022-12-10T06:56:20.898Z,17.97
2022-12-10T06:58:51.286Z,17.00
2022-12-10T07:01:22.834Z,17.70
2022-12-10T07:03:52.559Z,18.80
2022-12-10T07:06:22.178Z,19.43
2022-12-10T07:08:51.681Z,19.70
2022-12-10T07:11:23.792Z,19.73
2022-12-10T07:13:54.763Z,18.43
2022-12-10T07:16:26.823Z,18.70
2022-12-10T07:18:57.520Z,19.03
2022-12-10T07:21:28.838Z,18.73
2022-12-10T07:24:01.954Z,19.67
2022-12-10T07:26:33.445Z,24.93
2022-12-10T07:29:06.235Z,20.17
2022-12-10T07:31:35.599Z,19.30
2022-12-10T07:34:04.451Z,18.63
2022-12-10T07:36:33.138Z,19.60
2022-12-10T07:39:01.806Z,18.90
2022-12-10T07:41:31.266Z,31.73
2022-12-10T07:44:00.109Z,23.27
2022-12-10T07:46:34.600Z,20.80
2022-12-10T07:49:05.262Z,19.33
2022-12-10T07:51:33.855Z,20.60
2022-12-10T07:54:02.543Z,19.37
2022-12-10T07:56:32.259Z,19.07
2022-12-10T07:59:00.926Z,18.73
2022-12-10T08:01:31.116Z,18.77
2022-12-10T08:03:59.860Z,18.60
2022-12-10T08:06:31.358Z,18.97
2022-12-10T08:09:02.142Z,17.30
2022-12-10T08:11:31.078Z,17.07
2022-12-10T08:14:00.135Z,17.13
2022-12-10T08:16:32.905Z,16.17
2022-12-10T08:19:04.574Z,16.50
2022-12-10T08:21:36.963Z,17.23
2022-12-10T08:24:13.391Z,20.33
2022-12-10T08:26:51.983Z,20.07
2022-12-10T08:29:21.180Z,18.50
2022-12-10T08:31:51.441Z,17.43
2022-12-10T08:34:21.568Z,20.97
2022-12-10T08:36:50.523Z,19.50
2022-12-10T08:39:19.324Z,17.30
2022-12-10T08:41:49.056Z,17.07
2022-12-10T08:44:17.838Z,18.83
2022-12-10T08:46:46.536Z,18.77
2022-12-10T08:49:16.598Z,19.00
2022-12-10T08:51:45.316Z,18.53
2022-12-10T08:54:14.247Z,18.03
2022-12-10T08:56:42.874Z,17.17
2022-12-10T08:59:11.508Z,17.67
2022-12-10T09:01:40.283Z,16.03
2022-12-10T09:04:09.284Z,16.40
2022-12-10T09:06:39.600Z,17.00
2022-12-10T09:09:08.320Z,19.00
2022-12-10T09:11:37.593Z,17.07
2022-12-10T09:14:06.484Z,17.70
2022-12-10T09:16:40.185Z,20.10
2022-12-10T09:19:09.246Z,18.73
2022-12-10T09:21:39.718Z,21.47
2022-12-10T09:24:09.367Z,28.83
2022-12-10T09:26:38.275Z,19.92
2022-12-10T09:29:09.444Z,21.53
2022-12-10T09:31:38.362Z,20.30
2022-12-10T09:34:07.304Z,22.27
2022-12-10T09:36:37.696Z,22.90
2022-12-10T09:39:55.806Z,23.27
2022-12-10T09:44:39.127Z,22.70
2022-12-10T09:46:53.093Z,21.30
2022-12-10T09:49:42.148Z,23.20
2022-12-10T09:52:16.584Z,21.30
2022-12-10T09:54:54.554Z,21.47
2022-12-10T09:57:29.746Z,21.80
2022-12-10T10:00:02.671Z,20.40
2022-12-10T10:02:34.118Z,21.70
2022-12-10T10:05:13.182Z,21.10
2022-12-10T10:07:51.661Z,19.47
2022-12-10T10:10:29.210Z,20.90
2022-12-10T10:13:12.298Z,20.93
2022-12-10T10:15:53.187Z,20.13
2022-12-10T10:18:35.185Z,19.33
2022-12-10T10:21:04.480Z,18.50
2022-12-10T10:23:33.207Z,19.77
2022-12-10T10:26:03.319Z,20.03
2022-12-10T10:28:32.055Z,22.77
2022-12-10T10:31:00.879Z,21.83
2022-12-10T10:33:29.691Z,20.10
2022-12-10T10:36:00.472Z,23.37
2022-12-10T10:38:32.900Z,21.63
2022-12-10T10:41:07.168Z,19.53
2022-12-10T10:43:45.728Z,19.03
2022-12-10T10:46:21.508Z,21.17
2022-12-10T10:48:50.386Z,20.80
2022-12-10T10:51:24.483Z,19.60
2022-12-10T10:53:55.789Z,19.93
2022-12-10T10:56:30.300Z,22.15
2022-12-10T10:59:04.416Z,19.53
2022-12-10T11:01:48.888Z,20.63
2022-12-10T11:04:24.994Z,23.27
2022-12-10T11:06:58.059Z,20.23
2022-12-10T11:09:31.166Z,21.83
2022-12-10T11:12:08.734Z,24.13
2022-12-10T11:14:47.000Z,24.80
2022-12-10T11:17:25.675Z,22.57
2022-12-10T11:20:02.049Z,24.30
2022-12-10T11:22:33.346Z,21.07
2022-12-10T11:25:13.201Z,21.97
2022-12-10T11:27:58.553Z,19.57
2022-12-10T11:30:30.073Z,21.93
2022-12-10T11:33:22.951Z,19.87
2022-12-10T11:36:05.110Z,27.73
2022-12-10T11:38:47.335Z,21.90
2022-12-10T11:41:34.681Z,21.83
2022-12-10T11:44:26.427Z,20.03
2022-12-10T11:47:34.193Z,22.07
2022-12-10T11:50:22.423Z,20.90
2022-12-10T11:53:17.924Z,26.00
2022-12-10T11:56:01.768Z,23.73
2022-12-10T11:58:51.202Z,22.13
2022-12-10T12:01:34.706Z,23.87
2022-12-10T12:04:32.358Z,21.73
2022-12-10T12:07:27.415Z,20.53
2022-12-10T12:10:21.622Z,22.30
2022-12-10T12:12:59.878Z,23.43
2022-12-10T12:15:36.093Z,22.53
2022-12-10T12:18:23.250Z,23.37
2022-12-10T12:20:59.285Z,22.87
2022-12-10T12:23:35.648Z,22.30
2022-12-10T12:26:13.652Z,20.80
2022-12-10T12:28:50.795Z,24.47
2022-12-10T12:31:26.765Z,23.03
2022-12-10T12:34:07.298Z,22.07
2022-12-10T12:36:37.685Z,23.80
2022-12-10T12:39:19.506Z,21.57
2022-12-10T12:42:03.661Z,23.30
2022-12-10T12:44:46.843Z,24.20
2022-12-10T12:47:28.583Z,20.80
2022-12-10T12:50:01.274Z,23.17
2022-12-10T12:52:42.745Z,19.73
2022-12-10T12:55:28.497Z,22.27
2022-12-10T12:58:22.594Z,20.70
2022-12-10T13:00:59.171Z,18.87
2022-12-10T13:03:39.132Z,18.80
2022-12-10T13:06:31.055Z,19.63
2022-12-10T13:09:25.692Z,20.90
2022-12-10T13:12:30.891Z,17.50
2022-12-10T13:15:21.388Z,17.23
2022-12-10T13:18:36.973Z,20.93
2022-12-10T13:21:32.362Z,21.30
2022-12-10T13:24:13.569Z,19.20
2022-12-10T13:27:06.105Z,19.60
2022-12-10T13:29:54.218Z,18.70
2022-12-10T13:32:25.433Z,18.97
2022-12-10T13:35:28.732Z,21.27
2022-12-10T13:38:06.075Z,22.77
2022-12-10T13:41:02.292Z,20.13
2022-12-10T13:43:57.435Z,18.57
2022-12-10T13:46:34.015Z,20.83
2022-12-10T13:49:07.866Z,19.73
2022-12-10T13:51:52.082Z,23.27
2022-12-10T13:55:03.598Z,22.20
2022-12-10T13:57:55.819Z,20.73
2022-12-10T14:00:31.486Z,24.17
2022-12-10T14:03:36.767Z,20.50
2022-12-10T14:06:17.937Z,22.03
2022-12-10T14:09:07.396Z,20.97
2022-12-10T14:11:41.957Z,21.37
2022-12-10T14:14:19.335Z,21.37
2022-12-10T14:16:48.365Z,21.27
2022-12-10T14:19:19.150Z,19.37
2022-12-10T14:21:49.615Z,18.63
2022-12-10T14:24:31.349Z,21.73
2022-12-10T14:27:11.394Z,21.20
2022-12-10T14:29:40.053Z,21.17
2022-12-10T14:32:13.681Z,20.70
2022-12-10T14:34:42.443Z,22.70
2022-12-10T14:37:16.217Z,24.37
2022-12-10T14:39:45.185Z,26.13
2022-12-10T14:42:18.548Z,22.67
2022-12-10T14:44:50.066Z,20.87
2022-12-10T14:47:22.041Z,19.23
2022-12-10T14:49:57.327Z,20.07
2022-12-10T14:52:36.422Z,20.60
2022-12-10T14:55:06.692Z,23.17
2022-12-10T14:57:44.341Z,21.43
2022-12-10T15:00:19.089Z,20.27
2022-12-10T15:02:59.098Z,22.97
2022-12-10T15:05:33.522Z,19.83
2022-12-10T15:08:06.720Z,22.67
2022-12-10T15:10:40.095Z,21.57
2022-12-10T15:13:21.228Z,21.13
2022-12-10T15:15:53.479Z,21.30
2022-12-10T15:18:29.959Z,22.60
2022-12-10T15:21:14.243Z,21.53
2022-12-10T15:23:43.755Z,23.23
2022-12-10T15:26:23.458Z,25.27
2022-12-10T15:29:19.917Z,23.87
2022-12-10T15:31:49.819Z,24.00
2022-12-10T15:34:21.202Z,22.70
2022-12-10T15:36:53.708Z,23.10
2022-12-10T15:39:27.895Z,22.57
2022-12-10T15:41:58.619Z,24.07
2022-12-10T15:44:39.684Z,26.47
2022-12-10T15:47:18.555Z,25.57
2022-12-10T15:49:48.774Z,28.60
2022-12-10T15:52:20.822Z,23.83
2022-12-10T15:54:51.655Z,23.90
2022-12-10T15:57:24.374Z,24.23
2022-12-10T15:59:56.990Z,26.97
2022-12-10T16:02:38.568Z,24.27
2022-12-10T16:05:15.625Z,24.70
2022-12-10T16:07:45.493Z,26.13
2022-12-10T16:10:17.320Z,25.30
2022-12-10T16:12:51.155Z,25.33
2022-12-10T16:15:25.662Z,24.57
2022-12-10T16:17:54.478Z,24.93
2022-12-10T16:20:27.617Z,24.10
2022-12-10T16:22:58.221Z,29.10
2022-12-10T16:25:31.045Z,31.60
2022-12-10T16:28:00.790Z,32.27
2022-12-10T16:30:45.490Z,27.20
2022-12-10T16:33:16.194Z,29.20
2022-12-10T16:35:45.140Z,28.90
2022-12-10T16:38:14.407Z,26.27
2022-12-10T16:40:45.760Z,24.63
2022-12-10T16:43:19.881Z,27.20
2022-12-10T16:45:50.925Z,26.67
2022-12-10T16:48:20.380Z,27.10
2022-12-10T16:50:54.286Z,29.63
2022-12-10T16:53:29.952Z,28.43
2022-12-10T16:56:01.091Z,27.43
2022-12-10T16:58:42.875Z,26.77
2022-12-10T17:01:23.712Z,26.80
2022-12-10T17:03:53.858Z,28.20
2022-12-10T17:06:27.049Z,25.40
2022-12-10T17:08:55.839Z,28.83
2022-12-10T17:11:45.786Z,29.00
2022-12-10T17:14:24.831Z,28.10
2022-12-10T17:16:58.564Z,28.60
2022-12-10T17:19:29.639Z,26.77
2022-12-10T17:22:03.414Z,28.80
2022-12-10T17:24:32.474Z,31.73
2022-12-10T17:27:33.087Z,30.60
2022-12-10T17:30:08.070Z,28.43
2022-12-10T17:32:38.548Z,32.17
2022-12-10T17:35:10.062Z,35.70
2022-12-10T17:37:40.559Z,31.57
2022-12-10T17:40:22.444Z,32.50
2022-12-10T17:43:08.041Z,30.27
2022-12-10T17:45:37.848Z,30.10
2022-12-10T17:48:09.028Z,28.77
2022-12-10T17:50:39.763Z,33.23
2022-12-10T17:53:11.241Z,31.23
2022-12-10T17:55:45.164Z,31.40
2022-12-10T17:58:17.283Z,30.67
2022-12-10T18:00:45.989Z,32.60
2022-12-10T18:03:16.136Z,31.87
2022-12-10T18:05:45.285Z,31.63
2022-12-10T18:08:16.008Z,32.57
2022-12-10T18:10:44.744Z,35.47
2022-12-10T18:13:13.401Z,32.23
2022-12-10T18:15:42.882Z,34.67
2022-12-10T18:18:12.827Z,32.77
2022-12-10T18:20:46.042Z,33.80
2022-12-10T18:23:16.190Z,34.10
2022-12-10T18:25:49.349Z,32.03
2022-12-10T18:28:53.917Z,31.80
2022-12-10T18:31:27.215Z,29.03
2022-12-10T18:34:01.223Z,41.90
2022-12-10T18:36:34.797Z,31.73
2022-12-10T18:39:07.836Z,33.87
2022-12-10T18:41:36.531Z,31.43
2022-12-10T18:44:05.248Z,34.43
2022-12-10T18:46:38.145Z,30.43
2022-12-10T18:49:07.233Z,39.80
2022-12-10T18:51:37.208Z,34.77
2022-12-10T18:54:06.286Z,31.13
2022-12-10T18:56:36.381Z,33.50
2022-12-10T18:59:12.434Z,30.13
2022-12-10T19:01:41.554Z,30.23
2022-12-10T19:04:10.283Z,30.93
2022-12-10T19:06:41.198Z,31.37
2022-12-10T19:09:19.022Z,29.30
2022-12-10T19:11:51.922Z,30.10
2022-12-10T19:14:23.533Z,36.70
2022-12-10T19:16:58.675Z,33.97
2022-12-10T19:19:27.282Z,34.67
2022-12-10T19:21:57.300Z,29.13
2022-12-10T19:24:25.891Z,39.63
2022-12-10T19:26:55.015Z,31.27
2022-12-10T19:29:24.698Z,28.10
2022-12-10T19:31:54.698Z,27.77
2022-12-10T19:34:23.671Z,30.40
2022-12-10T19:36:52.584Z,27.80
2022-12-10T19:39:25.547Z,28.60
2022-12-10T19:41:55.421Z,23.73
2022-12-10T19:44:24.179Z,24.10
2022-12-10T19:46:53.049Z,27.73
2022-12-10T19:49:22.204Z,26.40
2022-12-10T19:51:51.444Z,29.93
2022-12-10T19:54:21.534Z,27.73
2022-12-10T19:56:50.131Z,32.10
2022-12-10T19:59:22.681Z,29.67
2022-12-10T20:01:51.430Z,25.70
2022-12-10T20:04:20.842Z,21.70
2022-12-10T20:06:51.215Z,24.30
2022-12-10T20:09:24.311Z,26.13
2022-12-10T20:11:53.336Z,24.03
2022-12-10T20:14:22.883Z,25.10
2022-12-10T20:16:53.138Z,22.77
2022-12-10T20:19:24.394Z,26.20
2022-12-10T20:21:53.373Z,25.00
2022-12-10T20:24:23.639Z,22.97
2022-12-10T20:26:52.766Z,22.97
2022-12-10T20:29:24.520Z,21.90
2022-12-10T20:31:56.380Z,46.27
2022-12-10T20:34:26.522Z,25.77
2022-12-10T20:36:55.312Z,26.07
2022-12-10T20:39:27.765Z,25.03
2022-12-10T20:41:57.315Z,24.43
2022-12-10T20:44:32.826Z,19.40
2022-12-10T20:47:07.800Z,25.00
2022-12-10T20:49:36.631Z,27.67
2022-12-10T20:52:06.083Z,19.73
2022-12-10T20:54:36.109Z,23.23
2022-12-10T20:57:05.070Z,21.40
2022-12-10T20:59:35.326Z,21.87
2022-12-10T21:02:08.141Z,19.03
2022-12-10T21:04:37.130Z,19.03
2022-12-10T21:07:08.405Z,18.50
2022-12-10T21:09:41.421Z,17.03
2022-12-10T21:12:14.712Z,15.33
2022-12-10T21:15:05.606Z,18.60
2022-12-10T21:17:35.158Z,15.23
2022-12-10T21:20:04.464Z,16.07
2022-12-10T21:22:33.334Z,13.17
2022-12-10T21:25:03.363Z,13.33
2022-12-10T21:27:31.981Z,13.40
2022-12-10T21:30:02.954Z,11.50
2022-12-10T21:32:31.544Z,15.33
2022-12-10T21:35:00.219Z,14.03
2022-12-10T21:37:28.915Z,15.50
2022-12-10T21:40:00.556Z,14.57
2022-12-10T21:42:47.984Z,18.17
2022-12-10T21:45:16.855Z,15.37
2022-12-10T21:47:45.791Z,15.70
2022-12-10T21:50:15.226Z,15.03
2022-12-10T21:52:44.247Z,16.60
2022-12-10T21:55:13.231Z,14.40
2022-12-10T21:57:43.509Z,15.37
2022-12-10T22:00:14.029Z,15.47
2022-12-10T22:02:43.806Z,17.77
2022-12-10T22:05:14.382Z,17.00
2022-12-10T22:07:43.469Z,15.20
2022-12-10T22:10:14.861Z,18.67
2022-12-10T22:12:45.059Z,20.17
2022-12-10T22:15:15.345Z,16.87
2022-12-10T22:17:44.007Z,15.57
2022-12-10T22:20:13.087Z,14.97
2022-12-10T22:22:41.721Z,15.03
2022-12-10T22:25:10.943Z,15.77
2022-12-10T22:27:39.713Z,14.27
2022-12-10T22:30:12.781Z,15.63
2022-12-10T22:32:44.253Z,16.03
2022-12-10T22:35:13.806Z,15.37
2022-12-10T22:37:42.501Z,16.37
2022-12-10T22:40:13.739Z,15.80
2022-12-10T22:42:45.916Z,17.50
2022-12-10T22:45:20.362Z,16.40
2022-12-10T22:47:49.037Z,17.10
2022-12-10T22:50:18.235Z,17.13
2022-12-10T22:52:46.859Z,16.67
2022-12-10T22:55:15.543Z,16.37
2022-12-10T22:57:44.148Z,16.17
2022-12-10T23:00:20.614Z,15.87
2022-12-10T23:02:50.469Z,14.70
2022-12-10T23:05:19.492Z,15.30
2022-12-10T23:07:48.161Z,14.20
2022-12-10T23:10:16.917Z,15.97
2022-12-10T23:13:03.223Z,15.13
2022-12-10T23:15:33.524Z,17.63
2022-12-10T23:18:02.107Z,15.57
2022-12-10T23:20:32.139Z,17.57
2022-12-10T23:23:01.430Z,15.33
2022-12-10T23:25:30.409Z,14.83
2022-12-10T23:27:59.131Z,14.40
2022-12-10T23:30:27.944Z,17.23
2022-12-10T23:32:57.915Z,16.90
2022-12-10T23:35:26.520Z,14.43
2022-12-10T23:37:55.554Z,15.77
2022-12-10T23:40:24.265Z,18.80
2022-12-10T23:42:53.109Z,16.57
2022-12-10T23:45:23.733Z,14.80
2022-12-10T23:47:52.519Z,15.90
2022-12-10T23:50:22.538Z,16.03
2022-12-10T23:52:51.352Z,15.27
2022-12-10T23:55:20.099Z,16.40
2022-12-10T23:57:48.925Z,16.57
